sensor_id;sensor_type;location;lat;lon;timestamp;P1;durP1;ratioP1;P2;durP2;ratioP2
52742;SDS011;55583;53.012;6.556;2022-09-09T03:11:23;140.52;;;24.98;;
52742;SDS011;55583;53.012;6.556;2022-09-09T03:13:49;126.45;;;27.35;;
52742;SDS011;55583;53.012;6.556;2022-09-09T03:16:15;142.40;;;28.48;;
52742;SDS011;55583;53.012;6.556;2022-09-09T03:18:40;89.10;;;21.45;;
52742;SDS011;55583;53.012;6.556;2022-09-09T03:21:07;95.93;;;23.92;;
52742;SDS011;55583;53.012;6.556;2022-09-09T03:23:33;79.30;;;22.67;;
52742;SDS011;55583;53.012;6.556;2022-09-09T03:25:59;110.07;;;24.15;;
52742;SDS011;55583;53.012;6.556;2022-09-09T03:28:25;150.40;;;28.83;;
52742;SDS011;55583;53.012;6.556;2022-09-09T03:31:02;127.65;;;27.98;;
52742;SDS011;55583;53.012;6.556;2022-09-09T03:33:29;177.82;;;27.73;;
52742;SDS011;55583;53.012;6.556;2022-09-09T03:35:56;109.32;;;27.38;;
52742;SDS011;55583;53.012;6.556;2022-09-09T03:38:22;117.65;;;25.65;;
52742;SDS011;55583;53.012;6.556;2022-09-09T03:40:50;139.25;;;29.15;;
52742;SDS011;55583;53.012;6.556;2022-09-09T03:43:18;133.48;;;26.70;;
52742;SDS011;55583;53.012;6.556;2022-09-09T03:45:45;53.38;;;18.95;;
52742;SDS011;55583;53.012;6.556;2022-09-09T03:48:15;91.40;;;24.02;;
52742;SDS011;55583;53.012;6.556;2022-09-09T03:50:48;72.05;;;19.35;;
52742;SDS011;55583;53.012;6.556;2022-09-09T03:53:15;129.13;;;24.10;;
52742;SDS011;55583;53.012;6.556;2022-09-09T03:55:46;41.17;;;16.63;;
52742;SDS011;55583;53.012;6.556;2022-09-09T03:58:15;115.30;;;22.83;;
52742;SDS011;55583;53.012;6.556;2022-09-09T04:00:43;94.40;;;23.52;;
52742;SDS011;55583;53.012;6.556;2022-09-09T04:03:18;79.38;;;19.88;;
52742;SDS011;55583;53.012;6.556;2022-09-09T04:05:43;78.75;;;20.23;;
52742;SDS011;55583;53.012;6.556;2022-09-09T04:08:09;106.30;;;25.45;;
52742;SDS011;55583;53.012;6.556;2022-09-09T04:10:36;80.10;;;20.25;;
52742;SDS011;55583;53.012;6.556;2022-09-09T04:13:03;126.45;;;25.55;;
52742;SDS011;55583;53.012;6.556;2022-09-09T04:15:31;148.15;;;29.23;;
52742;SDS011;55583;53.012;6.556;2022-09-09T04:17:58;83.57;;;21.05;;
52742;SDS011;55583;53.012;6.556;2022-09-09T04:20:23;61.33;;;20.80;;
52742;SDS011;55583;53.012;6.556;2022-09-09T04:22:49;142.60;;;25.67;;
52742;SDS011;55583;53.012;6.556;2022-09-09T04:25:15;213.07;;;32.45;;
52742;SDS011;55583;53.012;6.556;2022-09-09T04:27:40;121.72;;;29.02;;
52742;SDS011;55583;53.012;6.556;2022-09-09T04:30:08;66.95;;;21.13;;
52742;SDS011;55583;53.012;6.556;2022-09-09T04:32:34;64.60;;;22.25;;
52742;SDS011;55583;53.012;6.556;2022-09-09T04:35:00;95.15;;;26.27;;
52742;SDS011;55583;53.012;6.556;2022-09-09T04:37:26;121.93;;;26.85;;
52742;SDS011;55583;53.012;6.556;2022-09-09T04:39:52;102.70;;;25.63;;
52742;SDS011;55583;53.012;6.556;2022-09-09T04:42:17;103.03;;;25.63;;
52742;SDS011;55583;53.012;6.556;2022-09-09T04:44:44;101.68;;;22.95;;
52742;SDS011;55583;53.012;6.556;2022-09-09T04:47:10;134.55;;;28.73;;
52742;SDS011;55583;53.012;6.556;2022-09-09T04:49:36;200.85;;;34.70;;
52742;SDS011;55583;53.012;6.556;2022-09-09T04:52:02;134.95;;;26.55;;
52742;SDS011;55583;53.012;6.556;2022-09-09T04:54:28;94.85;;;23.77;;
52742;SDS011;55583;53.012;6.556;2022-09-09T04:56:54;184.40;;;33.42;;
52742;SDS011;55583;53.012;6.556;2022-09-09T04:59:20;86.72;;;23.30;;
52742;SDS011;55583;53.012;6.556;2022-09-09T05:01:47;133.93;;;31.95;;
52742;SDS011;55583;53.012;6.556;2022-09-09T05:04:13;122.20;;;28.85;;
52742;SDS011;55583;53.012;6.556;2022-09-09T05:06:41;115.72;;;29.73;;
52742;SDS011;55583;53.012;6.556;2022-09-09T05:09:07;155.95;;;34.33;;
52742;SDS011;55583;53.012;6.556;2022-09-09T05:11:33;192.50;;;36.05;;
52742;SDS011;55583;53.012;6.556;2022-09-09T05:14:03;256.63;;;41.53;;
52742;SDS011;55583;53.012;6.556;2022-09-09T05:16:29;162.13;;;35.80;;
52742;SDS011;55583;53.012;6.556;2022-09-09T05:18:55;147.85;;;32.63;;
52742;SDS011;55583;53.012;6.556;2022-09-09T05:21:22;135.82;;;31.05;;
52742;SDS011;55583;53.012;6.556;2022-09-09T05:23:50;128.00;;;30.38;;
52742;SDS011;55583;53.012;6.556;2022-09-09T05:26:17;153.25;;;34.10;;
52742;SDS011;55583;53.012;6.556;2022-09-09T05:28:44;94.75;;;28.13;;
52742;SDS011;55583;53.012;6.556;2022-09-09T05:31:11;115.63;;;27.65;;
52742;SDS011;55583;53.012;6.556;2022-09-09T05:33:42;114.00;;;29.00;;
52742;SDS011;55583;53.012;6.556;2022-09-09T05:36:11;88.45;;;26.30;;
52742;SDS011;55583;53.012;6.556;2022-09-09T05:38:39;196.05;;;38.17;;
52742;SDS011;55583;53.012;6.556;2022-09-09T05:41:05;66.95;;;23.77;;
52742;SDS011;55583;53.012;6.556;2022-09-09T05:43:32;153.70;;;34.53;;
52742;SDS011;55583;53.012;6.556;2022-09-09T05:45:59;72.60;;;25.25;;
52742;SDS011;55583;53.012;6.556;2022-09-09T05:48:43;70.47;;;26.02;;
52742;SDS011;55583;53.012;6.556;2022-09-09T05:51:12;170.55;;;35.30;;
52742;SDS011;55583;53.012;6.556;2022-09-09T05:53:42;57.85;;;21.35;;
52742;SDS011;55583;53.012;6.556;2022-09-09T05:56:16;113.05;;;28.58;;
52742;SDS011;55583;53.012;6.556;2022-09-09T05:58:42;119.70;;;28.63;;
52742;SDS011;55583;53.012;6.556;2022-09-09T06:01:10;132.27;;;29.15;;
52742;SDS011;55583;53.012;6.556;2022-09-09T06:03:37;131.50;;;31.52;;
52742;SDS011;55583;53.012;6.556;2022-09-09T06:06:05;89.00;;;27.55;;
52742;SDS011;55583;53.012;6.556;2022-09-09T06:08:39;132.57;;;31.52;;
52742;SDS011;55583;53.012;6.556;2022-09-09T06:11:27;107.32;;;30.30;;
52742;SDS011;55583;53.012;6.556;2022-09-09T06:13:56;56.88;;;21.60;;
52742;SDS011;55583;53.012;6.556;2022-09-09T06:16:24;131.70;;;30.15;;
52742;SDS011;55583;53.012;6.556;2022-09-09T06:18:51;117.07;;;28.20;;
52742;SDS011;55583;53.012;6.556;2022-09-09T06:21:23;105.80;;;28.65;;
52742;SDS011;55583;53.012;6.556;2022-09-09T06:23:50;63.60;;;22.17;;
52742;SDS011;55583;53.012;6.556;2022-09-09T06:26:19;52.55;;;22.02;;
52742;SDS011;55583;53.012;6.556;2022-09-09T06:28:48;68.70;;;22.67;;
52742;SDS011;55583;53.012;6.556;2022-09-09T06:31:16;33.28;;;18.08;;
52742;SDS011;55583;53.012;6.556;2022-09-09T06:33:42;81.47;;;24.38;;
52742;SDS011;55583;53.012;6.556;2022-09-09T06:36:13;93.80;;;27.75;;
52742;SDS011;55583;53.012;6.556;2022-09-09T06:38:44;56.50;;;21.85;;
52742;SDS011;55583;53.012;6.556;2022-09-09T06:41:11;65.07;;;23.95;;
52742;SDS011;55583;53.012;6.556;2022-09-09T06:43:38;59.40;;;22.02;;
52742;SDS011;55583;53.012;6.556;2022-09-09T06:48:30;47.78;;;21.85;;
52742;SDS011;55583;53.012;6.556;2022-09-09T06:51:09;65.25;;;22.27;;
52742;SDS011;55583;53.012;6.556;2022-09-09T06:53:40;50.65;;;19.55;;
52742;SDS011;55583;53.012;6.556;2022-09-09T06:58:44;70.53;;;22.65;;
52742;SDS011;55583;53.012;6.556;2022-09-09T07:01:14;45.08;;;21.58;;
52742;SDS011;55583;53.012;6.556;2022-09-09T07:03:51;62.60;;;22.77;;
52742;SDS011;55583;53.012;6.556;2022-09-09T07:06:22;67.82;;;22.42;;
52742;SDS011;55583;53.012;6.556;2022-09-09T07:08:54;75.85;;;23.90;;
52742;SDS011;55583;53.012;6.556;2022-09-09T07:11:21;33.58;;;17.80;;
52742;SDS011;55583;53.012;6.556;2022-09-09T07:13:48;59.60;;;22.35;;
52742;SDS011;55583;53.012;6.556;2022-09-09T07:16:18;47.90;;;19.90;;
52742;SDS011;55583;53.012;6.556;2022-09-09T07:18:45;46.00;;;18.75;;
52742;SDS011;55583;53.012;6.556;2022-09-09T07:21:12;53.55;;;22.20;;
52742;SDS011;55583;53.012;6.556;2022-09-09T07:23:39;37.75;;;17.95;;
52742;SDS011;55583;53.012;6.556;2022-09-09T07:26:09;45.10;;;19.13;;
52742;SDS011;55583;53.012;6.556;2022-09-09T07:28:36;47.85;;;20.00;;
52742;SDS011;55583;53.012;6.556;2022-09-09T07:31:02;45.85;;;18.67;;
52742;SDS011;55583;53.012;6.556;2022-09-09T07:33:29;37.13;;;18.65;;
52742;SDS011;55583;53.012;6.556;2022-09-09T07:36:06;46.80;;;20.05;;
52742;SDS011;55583;53.012;6.556;2022-09-09T07:38:37;51.33;;;20.88;;
52742;SDS011;55583;53.012;6.556;2022-09-09T07:41:09;41.83;;;18.25;;
52742;SDS011;55583;53.012;6.556;2022-09-09T07:43:40;36.97;;;17.15;;
52742;SDS011;55583;53.012;6.556;2022-09-09T07:46:07;34.70;;;17.63;;
52742;SDS011;55583;53.012;6.556;2022-09-09T07:48:33;35.40;;;16.63;;
52742;SDS011;55583;53.012;6.556;2022-09-09T07:51:06;34.22;;;15.73;;
52742;SDS011;55583;53.012;6.556;2022-09-09T07:53:35;19.88;;;12.80;;
52742;SDS011;55583;53.012;6.556;2022-09-09T07:56:08;31.33;;;14.02;;
52742;SDS011;55583;53.012;6.556;2022-09-09T07:58:39;28.00;;;13.23;;
52742;SDS011;55583;53.012;6.556;2022-09-09T08:01:09;19.80;;;12.07;;
52742;SDS011;55583;53.012;6.556;2022-09-09T08:03:36;22.83;;;12.75;;
52742;SDS011;55583;53.012;6.556;2022-09-09T08:06:03;26.40;;;13.05;;
52742;SDS011;55583;53.012;6.556;2022-09-09T08:08:31;17.90;;;11.02;;
52742;SDS011;55583;53.012;6.556;2022-09-09T08:11:04;27.27;;;15.25;;
52742;SDS011;55583;53.012;6.556;2022-09-09T08:13:32;23.13;;;12.70;;
52742;SDS011;55583;53.012;6.556;2022-09-09T08:16:08;22.23;;;12.25;;
52742;SDS011;55583;53.012;6.556;2022-09-09T08:18:36;22.05;;;11.80;;
52742;SDS011;55583;53.012;6.556;2022-09-09T08:21:07;23.48;;;11.85;;
52742;SDS011;55583;53.012;6.556;2022-09-09T08:23:41;18.75;;;11.30;;
52742;SDS011;55583;53.012;6.556;2022-09-09T08:26:10;24.10;;;12.00;;
52742;SDS011;55583;53.012;6.556;2022-09-09T08:28:38;25.75;;;13.10;;
52742;SDS011;55583;53.012;6.556;2022-09-09T08:31:12;27.95;;;14.02;;
52742;SDS011;55583;53.012;6.556;2022-09-09T08:33:42;19.52;;;10.65;;
52742;SDS011;55583;53.012;6.556;2022-09-09T08:36:12;21.08;;;12.25;;
52742;SDS011;55583;53.012;6.556;2022-09-09T08:38:52;13.90;;;9.55;;
52742;SDS011;55583;53.012;6.556;2022-09-09T08:49:43;22.92;;;10.82;;
52742;SDS011;55583;53.012;6.556;2022-09-09T08:54:47;13.80;;;8.93;;
52742;SDS011;55583;53.012;6.556;2022-09-09T08:57:18;11.48;;;7.78;;
52742;SDS011;55583;53.012;6.556;2022-09-09T08:59:51;13.02;;;6.78;;
52742;SDS011;55583;53.012;6.556;2022-09-09T09:05:17;15.55;;;7.35;;
52742;SDS011;55583;53.012;6.556;2022-09-09T09:07:53;12.15;;;6.95;;
52742;SDS011;55583;53.012;6.556;2022-09-09T09:10:44;14.18;;;6.82;;
52742;SDS011;55583;53.012;6.556;2022-09-09T09:13:26;19.42;;;7.07;;
52742;SDS011;55583;53.012;6.556;2022-09-09T09:15:55;14.10;;;6.65;;
52742;SDS011;55583;53.012;6.556;2022-09-09T09:18:26;14.05;;;6.35;;
52742;SDS011;55583;53.012;6.556;2022-09-09T09:23:29;12.77;;;6.30;;
52742;SDS011;55583;53.012;6.556;2022-09-09T09:26:06;12.50;;;5.63;;
52742;SDS011;55583;53.012;6.556;2022-09-09T09:28:34;10.13;;;5.03;;
52742;SDS011;55583;53.012;6.556;2022-09-09T09:33:43;11.45;;;5.03;;
52742;SDS011;55583;53.012;6.556;2022-09-09T09:36:24;10.38;;;4.30;;
52742;SDS011;55583;53.012;6.556;2022-09-09T09:38:59;15.02;;;4.15;;
52742;SDS011;55583;53.012;6.556;2022-09-09T09:43:55;9.18;;;3.28;;
52742;SDS011;55583;53.012;6.556;2022-09-09T09:46:22;10.35;;;3.80;;
52742;SDS011;55583;53.012;6.556;2022-09-09T09:48:59;13.95;;;3.45;;
52742;SDS011;55583;53.012;6.556;2022-09-09T09:51:31;11.55;;;3.35;;
52742;SDS011;55583;53.012;6.556;2022-09-09T09:54:03;9.38;;;3.20;;
52742;SDS011;55583;53.012;6.556;2022-09-09T09:56:34;6.90;;;2.90;;
52742;SDS011;55583;53.012;6.556;2022-09-09T09:59:00;14.15;;;3.33;;
52742;SDS011;55583;53.012;6.556;2022-09-09T10:01:27;9.90;;;3.08;;
52742;SDS011;55583;53.012;6.556;2022-09-09T10:03:58;8.32;;;2.97;;
52742;SDS011;55583;53.012;6.556;2022-09-09T10:06:30;12.05;;;3.15;;
52742;SDS011;55583;53.012;6.556;2022-09-09T10:08:58;11.07;;;3.08;;
52742;SDS011;55583;53.012;6.556;2022-09-09T10:11:43;13.30;;;3.33;;
52742;SDS011;55583;53.012;6.556;2022-09-09T10:14:19;16.92;;;3.38;;
52742;SDS011;55583;53.012;6.556;2022-09-09T10:16:52;8.80;;;3.08;;
52742;SDS011;55583;53.012;6.556;2022-09-09T10:19:34;7.78;;;2.42;;
52742;SDS011;55583;53.012;6.556;2022-09-09T10:27:38;9.35;;;2.40;;
52742;SDS011;55583;53.012;6.556;2022-09-09T10:30:19;8.68;;;2.40;;
52742;SDS011;55583;53.012;6.556;2022-09-09T10:41:18;5.85;;;1.90;;
52742;SDS011;55583;53.012;6.556;2022-09-09T10:49:14;7.35;;;1.90;;
52742;SDS011;55583;53.012;6.556;2022-09-09T10:54:40;7.05;;;2.30;;
52742;SDS011;55583;53.012;6.556;2022-09-09T10:57:31;9.10;;;2.70;;
52742;SDS011;55583;53.012;6.556;2022-09-09T11:00:06;7.38;;;2.17;;
52742;SDS011;55583;53.012;6.556;2022-09-09T11:02:39;6.63;;;2.03;;
52742;SDS011;55583;53.012;6.556;2022-09-09T11:07:47;5.75;;;1.92;;
52742;SDS011;55583;53.012;6.556;2022-09-09T11:12:56;5.63;;;2.08;;
52742;SDS011;55583;53.012;6.556;2022-09-09T11:15:35;10.70;;;2.97;;
52742;SDS011;55583;53.012;6.556;2022-09-09T11:18:06;5.25;;;1.65;;
52742;SDS011;55583;53.012;6.556;2022-09-09T11:20:38;5.97;;;2.17;;
52742;SDS011;55583;53.012;6.556;2022-09-09T11:23:05;9.55;;;2.10;;
52742;SDS011;55583;53.012;6.556;2022-09-09T11:28:40;8.02;;;2.00;;
52742;SDS011;55583;53.012;6.556;2022-09-09T11:31:38;8.07;;;1.88;;
52742;SDS011;55583;53.012;6.556;2022-09-09T11:34:35;6.97;;;1.65;;
52742;SDS011;55583;53.012;6.556;2022-09-09T11:37:30;8.00;;;1.67;;
52742;SDS011;55583;53.012;6.556;2022-09-09T11:40:22;9.25;;;2.35;;
52742;SDS011;55583;53.012;6.556;2022-09-09T11:42:48;12.93;;;2.53;;
52742;SDS011;55583;53.012;6.556;2022-09-09T11:45:26;8.85;;;2.30;;
52742;SDS011;55583;53.012;6.556;2022-09-09T11:47:58;14.07;;;2.10;;
52742;SDS011;55583;53.012;6.556;2022-09-09T11:52:51;6.43;;;2.08;;
52742;SDS011;55583;53.012;6.556;2022-09-09T11:55:29;7.25;;;2.03;;
52742;SDS011;55583;53.012;6.556;2022-09-09T11:57:58;6.05;;;2.58;;
52742;SDS011;55583;53.012;6.556;2022-09-09T12:00:33;6.57;;;1.80;;
52742;SDS011;55583;53.012;6.556;2022-09-09T12:03:54;5.32;;;1.83;;
52742;SDS011;55583;53.012;6.556;2022-09-09T12:08:46;15.95;;;4.05;;
52742;SDS011;55583;53.012;6.556;2022-09-09T12:11:28;19.17;;;3.20;;
52742;SDS011;55583;53.012;6.556;2022-09-09T12:13:56;17.52;;;3.95;;
52742;SDS011;55583;53.012;6.556;2022-09-09T12:16:32;19.02;;;3.92;;
52742;SDS011;55583;53.012;6.556;2022-09-09T12:19:04;16.35;;;4.07;;
52742;SDS011;55583;53.012;6.556;2022-09-09T12:24:11;11.25;;;3.40;;
52742;SDS011;55583;53.012;6.556;2022-09-09T12:26:47;6.55;;;2.40;;
52742;SDS011;55583;53.012;6.556;2022-09-09T12:29:36;9.95;;;2.85;;
52742;SDS011;55583;53.012;6.556;2022-09-09T12:32:19;5.68;;;2.30;;
52742;SDS011;55583;53.012;6.556;2022-09-09T12:34:53;9.18;;;2.45;;
52742;SDS011;55583;53.012;6.556;2022-09-09T12:40:00;5.03;;;2.20;;
52742;SDS011;55583;53.012;6.556;2022-09-09T12:42:28;6.03;;;2.00;;
52742;SDS011;55583;53.012;6.556;2022-09-09T12:44:55;9.02;;;2.30;;
52742;SDS011;55583;53.012;6.556;2022-09-09T12:47:30;8.18;;;2.55;;
52742;SDS011;55583;53.012;6.556;2022-09-09T12:50:14;8.75;;;2.03;;
52742;SDS011;55583;53.012;6.556;2022-09-09T12:52:49;7.22;;;2.17;;
52742;SDS011;55583;53.012;6.556;2022-09-09T12:55:20;9.77;;;2.10;;
52742;SDS011;55583;53.012;6.556;2022-09-09T12:57:50;7.13;;;2.15;;
52742;SDS011;55583;53.012;6.556;2022-09-09T13:00:21;6.65;;;1.58;;
52742;SDS011;55583;53.012;6.556;2022-09-09T13:05:16;7.32;;;1.80;;
52742;SDS011;55583;53.012;6.556;2022-09-09T13:07:45;6.35;;;1.67;;
52742;SDS011;55583;53.012;6.556;2022-09-09T13:10:13;6.10;;;1.83;;
52742;SDS011;55583;53.012;6.556;2022-09-09T13:12:40;7.07;;;2.20;;
52742;SDS011;55583;53.012;6.556;2022-09-09T13:15:11;8.68;;;1.95;;
52742;SDS011;55583;53.012;6.556;2022-09-09T13:17:49;7.18;;;3.03;;
52742;SDS011;55583;53.012;6.556;2022-09-09T13:20:20;7.68;;;1.98;;
52742;SDS011;55583;53.012;6.556;2022-09-09T13:22:47;5.60;;;1.92;;
52742;SDS011;55583;53.012;6.556;2022-09-09T13:25:27;5.30;;;1.92;;
52742;SDS011;55583;53.012;6.556;2022-09-09T13:28:01;6.32;;;1.70;;
52742;SDS011;55583;53.012;6.556;2022-09-09T13:30:32;3.05;;;1.40;;
52742;SDS011;55583;53.012;6.556;2022-09-09T13:38:19;4.13;;;1.58;;
52742;SDS011;55583;53.012;6.556;2022-09-09T13:40:59;4.53;;;1.33;;
52742;SDS011;55583;53.012;6.556;2022-09-09T13:43:30;7.07;;;1.88;;
52742;SDS011;55583;53.012;6.556;2022-09-09T13:46:00;8.25;;;1.90;;
52742;SDS011;55583;53.012;6.556;2022-09-09T13:48:29;6.13;;;1.92;;
52742;SDS011;55583;53.012;6.556;2022-09-09T13:51:03;5.70;;;1.77;;
52742;SDS011;55583;53.012;6.556;2022-09-09T13:53:30;5.63;;;1.70;;
52742;SDS011;55583;53.012;6.556;2022-09-09T13:55:56;5.50;;;1.55;;
52742;SDS011;55583;53.012;6.556;2022-09-09T13:58:23;6.05;;;1.33;;
52742;SDS011;55583;53.012;6.556;2022-09-09T14:00:50;6.10;;;1.83;;
52742;SDS011;55583;53.012;6.556;2022-09-09T14:03:17;4.57;;;1.42;;
52742;SDS011;55583;53.012;6.556;2022-09-09T14:05:43;5.90;;;1.27;;
52742;SDS011;55583;53.012;6.556;2022-09-09T14:08:11;7.85;;;1.98;;
52742;SDS011;55583;53.012;6.556;2022-09-09T14:10:46;4.13;;;0.85;;
52742;SDS011;55583;53.012;6.556;2022-09-09T14:13:12;4.55;;;1.20;;
52742;SDS011;55583;53.012;6.556;2022-09-09T14:15:37;2.47;;;0.80;;
52742;SDS011;55583;53.012;6.556;2022-09-09T14:18:03;3.00;;;0.75;;
52742;SDS011;55583;53.012;6.556;2022-09-09T14:20:29;1.08;;;0.45;;
52742;SDS011;55583;53.012;6.556;2022-09-09T14:22:55;1.70;;;0.98;;
52742;SDS011;55583;53.012;6.556;2022-09-09T14:25:23;2.25;;;1.50;;
52742;SDS011;55583;53.012;6.556;2022-09-09T14:27:49;3.67;;;0.75;;
52742;SDS011;55583;53.012;6.556;2022-09-09T14:30:16;4.38;;;0.90;;
52742;SDS011;55583;53.012;6.556;2022-09-09T14:32:41;1.85;;;1.05;;
52742;SDS011;55583;53.012;6.556;2022-09-09T14:35:07;3.30;;;1.27;;
52742;SDS011;55583;53.012;6.556;2022-09-09T14:37:33;5.82;;;1.45;;
52742;SDS011;55583;53.012;6.556;2022-09-09T14:39:59;4.35;;;1.20;;
52742;SDS011;55583;53.012;6.556;2022-09-09T14:42:24;2.97;;;1.40;;
52742;SDS011;55583;53.012;6.556;2022-09-09T14:44:51;6.40;;;1.15;;
52742;SDS011;55583;53.012;6.556;2022-09-09T14:47:17;3.95;;;1.00;;
52742;SDS011;55583;53.012;6.556;2022-09-09T14:49:42;2.60;;;1.10;;
52742;SDS011;55583;53.012;6.556;2022-09-09T14:52:08;2.83;;;1.10;;
52742;SDS011;55583;53.012;6.556;2022-09-09T14:54:34;3.05;;;1.10;;
52742;SDS011;55583;53.012;6.556;2022-09-09T14:57:00;2.90;;;0.75;;
52742;SDS011;55583;53.012;6.556;2022-09-09T14:59:25;2.67;;;0.80;;
52742;SDS011;55583;53.012;6.556;2022-09-09T15:01:51;4.78;;;1.05;;
52742;SDS011;55583;53.012;6.556;2022-09-09T15:04:18;6.45;;;1.52;;
52742;SDS011;55583;53.012;6.556;2022-09-09T15:06:44;2.83;;;1.00;;
52742;SDS011;55583;53.012;6.556;2022-09-09T15:09:13;1.90;;;0.77;;
52742;SDS011;55583;53.012;6.556;2022-09-09T15:11:39;4.80;;;1.30;;
52742;SDS011;55583;53.012;6.556;2022-09-09T15:14:05;2.50;;;0.90;;
52742;SDS011;55583;53.012;6.556;2022-09-09T15:16:33;4.43;;;0.90;;
52742;SDS011;55583;53.012;6.556;2022-09-09T15:18:59;4.45;;;1.33;;
52742;SDS011;55583;53.012;6.556;2022-09-09T15:21:26;5.47;;;1.48;;
52742;SDS011;55583;53.012;6.556;2022-09-09T15:23:55;4.63;;;1.08;;
52742;SDS011;55583;53.012;6.556;2022-09-09T15:26:21;3.63;;;1.10;;
52742;SDS011;55583;53.012;6.556;2022-09-09T15:28:48;2.13;;;0.95;;
52742;SDS011;55583;53.012;6.556;2022-09-09T15:31:24;4.72;;;1.50;;
52742;SDS011;55583;53.012;6.556;2022-09-09T15:34:11;4.70;;;1.10;;
52742;SDS011;55583;53.012;6.556;2022-09-09T15:36:39;4.90;;;0.98;;
52742;SDS011;55583;53.012;6.556;2022-09-09T15:39:08;4.25;;;0.95;;
52742;SDS011;55583;53.012;6.556;2022-09-09T15:41:37;2.90;;;1.10;;
52742;SDS011;55583;53.012;6.556;2022-09-09T15:44:04;2.72;;;1.17;;
52742;SDS011;55583;53.012;6.556;2022-09-09T15:49:21;4.05;;;1.13;;
52742;SDS011;55583;53.012;6.556;2022-09-09T15:51:54;5.53;;;1.30;;
52742;SDS011;55583;53.012;6.556;2022-09-09T15:54:22;5.57;;;1.50;;
52742;SDS011;55583;53.012;6.556;2022-09-09T15:56:50;4.10;;;2.20;;
52742;SDS011;55583;53.012;6.556;2022-09-09T15:59:21;5.35;;;1.55;;
52742;SDS011;55583;53.012;6.556;2022-09-09T16:01:47;4.53;;;1.35;;
52742;SDS011;55583;53.012;6.556;2022-09-09T16:04:15;7.30;;;1.85;;
52742;SDS011;55583;53.012;6.556;2022-09-09T16:06:46;2.85;;;1.17;;
52742;SDS011;55583;53.012;6.556;2022-09-09T16:09:11;5.82;;;1.63;;
52742;SDS011;55583;53.012;6.556;2022-09-09T16:11:37;3.47;;;1.20;;
52742;SDS011;55583;53.012;6.556;2022-09-09T16:14:04;5.10;;;2.38;;
52742;SDS011;55583;53.012;6.556;2022-09-09T16:16:31;4.65;;;2.38;;
52742;SDS011;55583;53.012;6.556;2022-09-09T16:18:58;5.93;;;1.75;;
52742;SDS011;55583;53.012;6.556;2022-09-09T16:21:29;1.60;;;0.88;;
52742;SDS011;55583;53.012;6.556;2022-09-09T16:23:57;5.07;;;1.48;;
52742;SDS011;55583;53.012;6.556;2022-09-09T16:26:24;5.05;;;1.70;;
52742;SDS011;55583;53.012;6.556;2022-09-09T16:28:50;4.15;;;1.77;;
52742;SDS011;55583;53.012;6.556;2022-09-09T16:31:20;4.22;;;1.58;;
52742;SDS011;55583;53.012;6.556;2022-09-09T16:33:47;2.50;;;1.50;;
52742;SDS011;55583;53.012;6.556;2022-09-09T16:36:14;2.25;;;1.40;;
52742;SDS011;55583;53.012;6.556;2022-09-09T16:38:41;5.70;;;1.63;;
52742;SDS011;55583;53.012;6.556;2022-09-09T16:41:10;7.47;;;2.28;;
52742;SDS011;55583;53.012;6.556;2022-09-09T16:43:37;4.45;;;1.70;;
52742;SDS011;55583;53.012;6.556;2022-09-09T16:46:15;11.30;;;2.35;;
52742;SDS011;55583;53.012;6.556;2022-09-09T16:48:43;9.10;;;2.05;;
52742;SDS011;55583;53.012;6.556;2022-09-09T16:51:14;4.97;;;1.83;;
52742;SDS011;55583;53.012;6.556;2022-09-09T16:53:42;3.50;;;1.60;;
52742;SDS011;55583;53.012;6.556;2022-09-09T16:56:12;3.20;;;1.50;;
52742;SDS011;55583;53.012;6.556;2022-09-09T16:58:39;2.90;;;1.35;;
52742;SDS011;55583;53.012;6.556;2022-09-09T17:01:05;4.40;;;2.33;;
52742;SDS011;55583;53.012;6.556;2022-09-09T17:03:31;5.57;;;1.85;;
52742;SDS011;55583;53.012;6.556;2022-09-09T17:05:57;5.93;;;2.20;;
52742;SDS011;55583;53.012;6.556;2022-09-09T17:08:27;7.03;;;2.10;;
52742;SDS011;55583;53.012;6.556;2022-09-09T17:10:56;6.82;;;2.22;;
52742;SDS011;55583;53.012;6.556;2022-09-09T17:13:22;5.25;;;1.40;;
52742;SDS011;55583;53.012;6.556;2022-09-09T17:15:48;6.90;;;1.90;;
52742;SDS011;55583;53.012;6.556;2022-09-09T17:18:14;3.85;;;1.80;;
52742;SDS011;55583;53.012;6.556;2022-09-09T17:20:42;3.53;;;1.70;;
52742;SDS011;55583;53.012;6.556;2022-09-09T17:23:09;3.92;;;1.45;;
52742;SDS011;55583;53.012;6.556;2022-09-09T17:25:36;3.70;;;1.65;;
52742;SDS011;55583;53.012;6.556;2022-09-09T17:28:02;7.53;;;1.88;;
52742;SDS011;55583;53.012;6.556;2022-09-09T17:30:34;7.97;;;2.25;;
52742;SDS011;55583;53.012;6.556;2022-09-09T17:33:01;3.55;;;1.40;;
52742;SDS011;55583;53.012;6.556;2022-09-09T17:35:31;6.20;;;1.77;;
52742;SDS011;55583;53.012;6.556;2022-09-09T17:37:58;5.38;;;2.28;;
52742;SDS011;55583;53.012;6.556;2022-09-09T17:40:23;6.28;;;2.13;;
52742;SDS011;55583;53.012;6.556;2022-09-09T17:42:49;7.07;;;1.90;;
52742;SDS011;55583;53.012;6.556;2022-09-09T17:45:15;7.32;;;1.80;;
52742;SDS011;55583;53.012;6.556;2022-09-09T17:47:41;4.97;;;1.73;;
52742;SDS011;55583;53.012;6.556;2022-09-09T17:50:08;6.18;;;2.03;;
52742;SDS011;55583;53.012;6.556;2022-09-09T17:52:38;9.73;;;2.50;;
52742;SDS011;55583;53.012;6.556;2022-09-09T17:55:05;6.97;;;2.70;;
52742;SDS011;55583;53.012;6.556;2022-09-09T17:57:32;10.98;;;2.17;;
52742;SDS011;55583;53.012;6.556;2022-09-09T17:59:58;6.53;;;2.42;;
52742;SDS011;55583;53.012;6.556;2022-09-09T18:02:23;5.90;;;2.30;;
52742;SDS011;55583;53.012;6.556;2022-09-09T18:04:49;9.18;;;2.10;;
52742;SDS011;55583;53.012;6.556;2022-09-09T18:07:14;7.60;;;2.53;;
52742;SDS011;55583;53.012;6.556;2022-09-09T18:09:40;8.68;;;2.10;;
52742;SDS011;55583;53.012;6.556;2022-09-09T18:12:06;8.20;;;2.10;;
52742;SDS011;55583;53.012;6.556;2022-09-09T18:14:32;6.43;;;2.33;;
52742;SDS011;55583;53.012;6.556;2022-09-09T18:17:00;3.70;;;2.00;;
52742;SDS011;55583;53.012;6.556;2022-09-09T18:19:28;9.85;;;2.72;;
52742;SDS011;55583;53.012;6.556;2022-09-09T18:21:56;6.28;;;2.00;;
52742;SDS011;55583;53.012;6.556;2022-09-09T18:24:21;7.28;;;1.92;;
52742;SDS011;55583;53.012;6.556;2022-09-09T18:26:48;6.88;;;2.40;;
52742;SDS011;55583;53.012;6.556;2022-09-09T18:29:15;6.97;;;2.38;;
52742;SDS011;55583;53.012;6.556;2022-09-09T18:31:45;8.88;;;2.50;;
52742;SDS011;55583;53.012;6.556;2022-09-09T18:34:12;10.18;;;2.90;;
52742;SDS011;55583;53.012;6.556;2022-09-09T18:36:41;7.03;;;2.83;;
52742;SDS011;55583;53.012;6.556;2022-09-09T18:39:08;7.78;;;2.80;;
52742;SDS011;55583;53.012;6.556;2022-09-09T18:41:37;6.40;;;2.95;;
52742;SDS011;55583;53.012;6.556;2022-09-09T18:44:12;6.40;;;2.63;;
52742;SDS011;55583;53.012;6.556;2022-09-09T18:46:40;6.10;;;2.83;;
52742;SDS011;55583;53.012;6.556;2022-09-09T18:49:06;7.75;;;3.28;;
52742;SDS011;55583;53.012;6.556;2022-09-09T18:51:33;7.97;;;3.17;;
52742;SDS011;55583;53.012;6.556;2022-09-09T18:54:04;9.10;;;2.92;;
52742;SDS011;55583;53.012;6.556;2022-09-09T18:56:33;6.57;;;2.90;;
52742;SDS011;55583;53.012;6.556;2022-09-09T18:59:00;10.90;;;3.13;;
52742;SDS011;55583;53.012;6.556;2022-09-09T19:01:28;6.75;;;2.75;;
52742;SDS011;55583;53.012;6.556;2022-09-09T19:03:54;8.27;;;2.80;;
52742;SDS011;55583;53.012;6.556;2022-09-09T19:06:25;9.27;;;3.25;;
52742;SDS011;55583;53.012;6.556;2022-09-09T19:08:54;6.10;;;2.78;;
52742;SDS011;55583;53.012;6.556;2022-09-09T19:11:22;7.72;;;3.00;;
52742;SDS011;55583;53.012;6.556;2022-09-09T19:13:49;5.97;;;2.72;;
52742;SDS011;55583;53.012;6.556;2022-09-09T19:16:35;6.32;;;2.55;;
52742;SDS011;55583;53.012;6.556;2022-09-09T19:19:10;12.57;;;3.17;;